Time;durP1;ratioP1;P1;durP2;ratioP2;P2;SDS_P1;SDS_P2;PMS_P1;PMS_P2;Temp;Humidity;BMP_temperature;BMP_pressure;BME280_temperature;BME280_humidity;BME280_pressure;Samples;Min_cycle;Max_cycle;Signal;HPM_P1;HPM_P2
2022/02/17 00:01:47;;;;;;;;;;;;;;;;;;5076403;28;19920;-79
2022/02/17 00:04:12;;;;;;;;;;;;;;;;;;5075716;28;19912;-79
2022/02/17 00:06:38;;;;;;;;;;;;;;;;;;5076610;28;19917;-78
2022/02/17 00:09:03;;;;;;;;;;;;;;;;;;5076527;28;19923;-78
2022/02/17 00:11:28;;;;;;;;;;;;;;;;;;5076181;28;19927;-79
2022/02/17 00:13:53;;;;;;;;;;;;;;;;;;5077855;28;19916;-78
2022/02/17 00:16:19;;;;;;;;;;;;;;;;;;5077653;28;19917;-79
2022/02/17 00:18:44;;;;;;;;;;;;;;;;;;5076679;28;19921;-78
2022/02/17 00:21:11;;;;;;;;;;;;;;;;;;5078325;28;20255;-78
2022/02/17 00:23:38;;;;;;;;;;;;;;;;;;5077778;28;20022;-78
2022/02/17 00:26:03;;;;;;;;;;;;;;;;;;5076373;28;19923;-78
2022/02/17 00:28:29;;;;;;;;;;;;;;;;;;5075711;28;20289;-77
2022/02/17 00:30:54;;;;;;;;;;;;;;;;;;5076598;28;19931;-78
2022/02/17 00:33:20;;;;;;;;;;;;;;;;;;5076033;28;19923;-78
2022/02/17 00:35:46;;;;;;;;;;;;;;;;;;5075039;28;20389;-78
2022/02/17 00:38:11;;;;;;;;;;;;;;;;;;5076503;28;19970;-78
2022/02/17 00:40:37;;;;;;;;;;;;;;;;;;5075223;28;20003;-78
2022/02/17 00:43:02;;;;;;;;;;;;;;;;;;5076653;28;20370;-78
2022/02/17 00:45:27;;;;;;;;;;;;;;;;;;5075640;28;19920;-77
2022/02/17 00:47:54;;;;;;;;;;;;;;;;;;5074838;28;19923;-79
2022/02/17 00:50:19;;;;;;;;;;;;;;;;;;5072409;28;20026;-79
2022/02/17 00:52:45;;;;;;;;;;;;;;;;;;5072437;28;20412;-77
2022/02/17 00:55:11;;;;;;;;;;;;;;;;;;5072581;28;19924;-78
2022/02/17 00:57:37;;;;;;;;;;;;;;;;;;5072818;28;19966;-77
2022/02/17 01:00:04;;;;;;;;;;;;;;;;;;5074465;28;19924;-78
2022/02/17 01:02:33;;;;;;;;;;;;;;;;;;5092817;28;19923;-77
2022/02/17 01:04:59;;;;;;;;;;;;;;;;;;5097444;28;19912;-77
2022/02/17 01:07:25;;;;;;;;;;;;;;;;;;5099406;28;19923;-79
2022/02/17 01:09:50;;;;;;;;;;;;;;;;;;5099551;28;20257;-78
2022/02/17 01:12:15;;;;;;;;;;;;;;;;;;5100729;28;19924;-77
2022/02/17 01:14:41;;;;;;;;;;;;;;;;;;5098624;28;20033;-77
2022/02/17 01:17:06;;;;;;;;;;;;;;;;;;5095875;28;20290;-77
2022/02/17 01:19:33;;;;;;;;;;;;;;;;;;5097859;28;19916;-77
2022/02/17 01:21:58;;;;;;;;;;;;;;;;;;5099785;28;19976;-79
2022/02/17 01:24:25;;;;;;;;;;;;;;;;;;5099487;28;19916;-78
2022/02/17 01:26:51;;;;;;;;;;;;;;;;;;5098128;28;19916;-79
2022/02/17 01:29:18;;;;;;;;;;;;;;;;;;5099482;28;19923;-78
2022/02/17 01:31:43;;;;;;;;;;;;;;;;;;5097756;28;19920;-78
2022/02/17 01:34:12;;;;;;;;;;;;;;;;;;5099159;28;19938;-78
2022/02/17 01:36:45;;;;;;;;;;;;;;;;;;5095837;28;19970;-79
2022/02/17 01:39:12;;;;;;;;;;;;;;;;;;5096317;28;20387;-78
2022/02/17 01:41:37;;;;;;;;;;;;;;;;;;5097880;28;19916;-79
2022/02/17 01:44:08;;;;;;;;;;;;;;;;;;5097394;28;20068;-78
2022/02/17 01:46:37;;;;;;;;;;;;;;;;;;5098936;28;20030;-78
2022/02/17 01:49:03;;;;;;;;;;;;;;;;;;5097669;28;19963;-78
2022/02/17 01:51:30;;;;;;;;;;;;;;;;;;5099139;28;20302;-79
2022/02/17 01:53:56;;;;;;;;;;;;;;;;;;5102082;28;19923;-78
2022/02/17 01:56:22;;;;;;;;;;;;;;;;;;5099436;28;19920;-78
2022/02/17 01:58:47;;;;;;;;;;;;;;;;;;5099718;28;19916;-79
2022/02/17 02:01:23;;;;;;;;;;;;;;;;;;5100755;28;19962;-78
2022/02/17 02:03:49;;;;;;;;;;;;;;;;;;5101202;28;19927;-79
2022/02/17 02:06:15;;;;;;;;;;;;;;;;;;5098762;28;19916;-78
2022/02/17 02:08:56;;;;;;;;;;;;;;;;;;5101681;28;20346;-78
2022/02/17 02:11:22;;;;;;;;;;;;;;;;;;5100626;28;19920;-78
2022/02/17 02:13:57;;;;;;;;;;;;;;;;;;5100753;28;20384;-78
2022/02/17 02:16:27;;;;;;;;;;;;;;;;;;5098572;28;19955;-78
2022/02/17 02:18:53;;;;;;;;;;;;;;;;;;5083676;28;19916;-80
2022/02/17 02:21:22;;;;;;;;;;;;;;;;;;5101348;28;19920;-82
2022/02/17 02:23:47;;;;;;;;;;;;;;;;;;5100913;28;19916;-81
2022/02/17 02:26:13;;;;;;;;;;;;;;;;;;5100474;28;19922;-79
2022/02/17 02:28:39;;;;;;;;;;;;;;;;;;5100778;28;20330;-80
2022/02/17 02:31:06;;;;;;;;;;;;;;;;;;5100504;28;19920;-79
2022/02/17 02:33:31;;;;;;;;;;;;;;;;;;5100611;28;19923;-83
2022/02/17 02:35:56;;;;;;;;;;;;;;;;;;5082744;28;20041;-78
2022/02/17 02:38:25;;;;;;;;;;;;;;;;;;5098021;28;19961;-78
2022/02/17 02:40:50;;;;;;;;;;;;;;;;;;5098454;28;20308;-79
2022/02/17 02:43:36;;;;;;;;;;;;;;;;;;5098458;28;20389;-80
2022/02/17 02:46:02;;;;;;;;;;;;;;;;;;5098357;28;19962;-82
2022/02/17 02:48:28;;;;;;;;;;;;;;;;;;5097289;28;19920;-79
2022/02/17 02:50:53;;;;;;;;;;;;;;;;;;5098277;28;19973;-79
2022/02/17 02:53:19;;;;;;;;;;;;;;;;;;5097060;28;19920;-79
2022/02/17 02:55:45;;;;;;;;;;;;;;;;;;5097112;28;20393;-78
2022/02/17 02:58:12;;;;;;;;;;;;;;;;;;5098660;28;20373;-78
2022/02/17 03:00:38;;;;;;;;;;;;;;;;;;5090979;28;20357;-80
2022/02/17 03:03:03;;;;;;;;;;;;;;;;;;5077827;28;19924;-77
2022/02/17 03:05:29;;;;;;;;;;;;;;;;;;5077739;28;19924;-78
2022/02/17 03:07:55;;;;;;;;;;;;;;;;;;5076472;28;19916;-79
2022/02/17 03:10:21;;;;;;;;;;;;;;;;;;5075856;28;20007;-80
2022/02/17 03:12:47;;;;;;;;;;;;;;;;;;5076088;28;19963;-81
2022/02/17 03:15:12;;;;;;;;;;;;;;;;;;5077381;28;19943;-78
2022/02/17 03:17:38;;;;;;;;;;;;;;;;;;5077671;28;19928;-78
2022/02/17 03:20:07;;;;;;;;;;;;;;;;;;5076704;28;20382;-78
2022/02/17 03:22:34;;;;;;;;;;;;;;;;;;5075520;28;19922;-78
2022/02/17 03:25:00;;;;;;;;;;;;;;;;;;5075459;28;19923;-78
2022/02/17 03:27:26;;;;;;;;;;;;;;;;;;5076263;28;19916;-77
2022/02/17 03:30:07;;;;;;;;;;;;;;;;;;5073649;28;19924;-76
2022/02/17 03:32:36;;;;;;;;;;;;;;;;;;5076220;28;20285;-80
2022/02/17 03:35:06;;;;;;;;;;;;;;;;;;5075050;28;19921;-81
2022/02/17 03:37:32;;;;;;;;;;;;;;;;;;5077078;28;19916;-79
2022/02/17 03:39:58;;;;;;;;;;;;;;;;;;5076560;28;19928;-79
2022/02/17 03:42:37;;;;;;;;;;;;;;;;;;5076116;28;19923;-78
2022/02/17 03:45:04;;;;;;;;;;;;;;;;;;5075174;28;19966;-79
2022/02/17 03:47:31;;;;;;;;;;;;;;;;;;5077088;28;20320;-80
2022/02/17 03:50:04;;;;;;;;;;;;;;;;;;5076451;28;19924;-79
2022/02/17 03:52:32;;;;;;;;;;;;;;;;;;5081126;28;19921;-80
2022/02/17 03:55:16;;;;;;;;;;;;;;;;;;5081234;28;19916;-80
2022/02/17 03:57:44;;;;;;;;;;;;;;;;;;5079119;28;19965;-80
2022/02/17 04:00:12;;;;;;;;;;;;;;;;;;5084550;28;20379;-79
2022/02/17 04:02:43;;;;;;;;;;;;;;;;;;5119838;28;19923;-80
2022/02/17 04:05:10;;;;;;;;;;;;;;;;;;5118690;28;19916;-79
2022/02/17 04:07:36;;;;;;;;;;;;;;;;;;5117607;28;19997;-80
2022/02/17 04:10:15;;;;;;;;;;;;;;;;;;5117920;28;19915;-79
2022/02/17 04:12:41;;;;;;;;;;;;;;;;;;5116421;28;19942;-79
2022/02/17 04:15:11;;;;;;;;;;;;;;;;;;5116014;28;19912;-79
2022/02/17 04:17:37;;;;;;;;;;;;;;;;;;5116205;28;20006;-79
2022/02/17 04:20:21;;;;;;;;;;;;;;;;;;5117154;28;19969;-78
2022/02/17 04:23:13;;;;;;;;;;;;;;;;;;5101442;28;19915;-79
2022/02/17 04:25:42;;;;;;;;;;;;;;;;;;5117820;28;19916;-78
2022/02/17 04:28:12;;;;;;;;;;;;;;;;;;5117323;28;19994;-80
2022/02/17 04:30:38;;;;;;;;;;;;;;;;;;5111336;28;19951;-84
2022/02/17 04:33:05;;;;;;;;;;;;;;;;;;5097053;28;19927;-84
2022/02/17 04:35:40;;;;;;;;;;;;;;;;;;5097880;28;19977;-82
2022/02/17 04:38:05;;;;;;;;;;;;;;;;;;5082082;28;19916;-83
2022/02/17 04:43:24;;;;;;;;;;;;;;;;;;5101398;28;20258;-83
2022/02/17 04:45:50;;;;;;;;;;;;;;;;;;5100592;28;19923;-83
2022/02/17 04:48:15;;;;;;;;;;;;;;;;;;5083099;28;19916;-82
2022/02/17 04:50:40;;;;;;;;;;;;;;;;;;5099233;28;20378;-83
2022/02/17 04:53:07;;;;;;;;;;;;;;;;;;5084029;28;19920;-82
2022/02/17 04:55:41;;;;;;;;;;;;;;;;;;5087164;28;20381;-85
2022/02/17 04:58:07;;;;;;;;;;;;;;;;;;5085477;28;19984;-86
2022/02/17 05:00:33;;;;;;;;;;;;;;;;;;5088427;28;19916;-86
2022/02/17 05:03:23;;;;;;;;;;;;;;;;;;5104606;28;19920;-81
2022/02/17 05:06:02;;;;;;;;;;;;;;;;;;5101025;28;20377;-82
2022/02/17 05:08:30;;;;;;;;;;;;;;;;;;5091610;28;19924;-80
2022/02/17 05:10:58;;;;;;;;;;;;;;;;;;5081896;28;19920;-83
2022/02/17 05:13:24;;;;;;;;;;;;;;;;;;5082779;28;19916;-83
2022/02/17 05:15:51;;;;;;;;;;;;;;;;;;5083399;28;19923;-83
2022/02/17 05:18:18;;;;;;;;;;;;;;;;;;5083811;28;19916;-84
2022/02/17 05:20:43;;;;;;;;;;;;;;;;;;5083583;28;20306;-85
2022/02/17 05:23:28;;;;;;;;;;;;;;;;;;5087891;28;19920;-86
2022/02/17 05:26:02;;;;;;;;;;;;;;;;;;5086233;28;20053;-81
2022/02/17 05:29:03;;;;;;;;;;;;;;;;;;5001858;28;20015;-82
2022/02/17 05:31:55;;;;;;;;;;;;;;;;;;5094725;28;20406;-79
2022/02/17 05:34:56;;;;;;;;;;;;;;;;;;5038803;28;19964;-79
2022/02/17 05:37:34;;;;;;;;;;;;;;;;;;5089981;28;19957;-81
2022/02/17 05:40:18;;;;;;;;;;;;;;;;;;5101338;28;20039;-80
2022/02/17 05:42:43;;;;;;;;;;;;;;;;;;5104010;28;19959;-81
2022/02/17 05:45:09;;;;;;;;;;;;;;;;;;5102387;28;20053;-80
2022/02/17 05:47:35;;;;;;;;;;;;;;;;;;5102630;28;19923;-80
2022/02/17 05:50:01;;;;;;;;;;;;;;;;;;5103198;28;19939;-79
2022/02/17 05:52:26;;;;;;;;;;;;;;;;;;5103499;28;19920;-82
2022/02/17 05:54:51;;;;;;;;;;;;;;;;;;5106389;28;20353;-82
2022/02/17 05:57:16;;;;;;;;;;;;;;;;;;5084064;28;19916;-84
2022/02/17 05:59:44;;;;;;;;;;;;;;;;;;5099639;28;19923;-86
2022/02/17 06:02:14;;;;;;;;;;;;;;;;;;5079827;28;20392;-86
2022/02/17 06:04:43;;;;;;;;;;;;;;;;;;5080579;28;19916;-83
2022/02/17 06:07:08;;;;;;;;;;;;;;;;;;5080493;28;20386;-83
2022/02/17 06:09:34;;;;;;;;;;;;;;;;;;5079188;28;19916;-80
2022/02/17 06:12:00;;;;;;;;;;;;;;;;;;5080069;28;19974;-83
2022/02/17 06:14:25;;;;;;;;;;;;;;;;;;5079093;28;19912;-83
2022/02/17 06:16:51;;;;;;;;;;;;;;;;;;5080341;28;19923;-85
2022/02/17 06:19:16;;;;;;;;;;;;;;;;;;5080559;28;19920;-81
2022/02/17 06:21:41;;;;;;;;;;;;;;;;;;5079099;28;20400;-80
2022/02/17 06:24:07;;;;;;;;;;;;;;;;;;5080433;28;20386;-78
2022/02/17 06:26:32;;;;;;;;;;;;;;;;;;5079039;28;19916;-81
2022/02/17 06:28:58;;;;;;;;;;;;;;;;;;5078915;28;19986;-79
2022/02/17 06:31:24;;;;;;;;;;;;;;;;;;5078500;28;20015;-79
2022/02/17 06:33:49;;;;;;;;;;;;;;;;;;5111271;28;19955;-80
2022/02/17 06:36:17;;;;;;;;;;;;;;;;;;5080567;28;19962;-78
2022/02/17 06:38:43;;;;;;;;;;;;;;;;;;5081602;28;19948;-79
2022/02/17 06:41:08;;;;;;;;;;;;;;;;;;5078057;28;19955;-78
2022/02/17 06:43:36;;;;;;;;;;;;;;;;;;5078082;28;19977;-78
2022/02/17 06:46:02;;;;;;;;;;;;;;;;;;5076964;28;19916;-78
2022/02/17 06:48:27;;;;;;;;;;;;;;;;;;5076504;28;20054;-77
2022/02/17 06:50:52;;;;;;;;;;;;;;;;;;5075975;28;19943;-77
2022/02/17 06:53:18;;;;;;;;;;;;;;;;;;5075227;28;20061;-79
2022/02/17 06:55:45;;;;;;;;;;;;;;;;;;5075180;28;20362;-78
2022/02/17 06:58:10;;;;;;;;;;;;;;;;;;5087785;28;20362;-80
2022/02/17 07:00:35;;;;;;;;;;;;;;;;;;5083922;28;19977;-82
2022/02/17 07:03:04;;;;;;;;;;;;;;;;;;5080174;28;20271;-80
2022/02/17 07:05:33;;;;;;;;;;;;;;;;;;5080836;28;20301;-83
2022/02/17 07:07:59;;;;;;;;;;;;;;;;;;5080840;28;19920;-83
2022/02/17 07:13:08;;;;;;;;;;;;;;;;;;5083295;28;19920;-81
2022/02/17 07:15:35;;;;;;;;;;;;;;;;;;5081506;28;20061;-78
2022/02/17 07:18:02;;;;;;;;;;;;;;;;;;5080645;28;20419;-80
2022/02/17 07:20:27;;;;;;;;;;;;;;;;;;5078577;28;20362;-79
2022/02/17 07:22:52;;;;;;;;;;;;;;;;;;5080021;28;19924;-77
2022/02/17 07:25:18;;;;;;;;;;;;;;;;;;5077605;28;19946;-80
2022/02/17 07:27:46;;;;;;;;;;;;;;;;;;5077398;28;20000;-80
2022/02/17 07:30:11;;;;;;;;;;;;;;;;;;5078644;28;20409;-81
2022/02/17 07:32:40;;;;;;;;;;;;;;;;;;5079071;28;20262;-78
2022/02/17 07:35:05;;;;;;;;;;;;;;;;;;5078421;28;19921;-78
2022/02/17 07:37:30;;;;;;;;;;;;;;;;;;5078347;28;19939;-77
2022/02/17 07:39:56;;;;;;;;;;;;;;;;;;5076079;28;19917;-78
2022/02/17 07:42:21;;;;;;;;;;;;;;;;;;5075063;28;19917;-77
2022/02/17 07:44:46;;;;;;;;;;;;;;;;;;5074851;28;19935;-77
2022/02/17 07:47:12;;;;;;;;;;;;;;;;;;5075486;28;19916;-77
2022/02/17 07:49:37;;;;;;;;;;;;;;;;;;5076282;28;19916;-79
2022/02/17 07:52:02;;;;;;;;;;;;;;;;;;5075841;28;20332;-78
2022/02/17 07:54:28;;;;;;;;;;;;;;;;;;5076349;28;19927;-78
2022/02/17 07:56:54;;;;;;;;;;;;;;;;;;5077596;28;19916;-78
2022/02/17 07:59:20;;;;;;;;;;;;;;;;;;5076710;28;19963;-79
2022/02/17 08:01:45;;;;;;;;;;;;;;;;;;5092976;28;19923;-78
2022/02/17 08:04:11;;;;;;;;;;;;;;;;;;5076858;28;19923;-79
2022/02/17 08:06:38;;;;;;;;;;;;;;;;;;5075312;28;19939;-79
2022/02/17 08:09:03;;;;;;;;;;;;;;;;;;5077037;28;19924;-79
2022/02/17 08:11:28;;;;;;;;;;;;;;;;;;5075775;28;20382;-79
2022/02/17 08:13:54;;;;;;;;;;;;;;;;;;5076677;28;19921;-82
2022/02/17 08:16:20;;;;;;;;;;;;;;;;;;5080862;28;20355;-80
2022/02/17 08:18:45;;;;;;;;;;;;;;;;;;5079598;28;20436;-79
2022/02/17 08:21:11;;;;;;;;;;;;;;;;;;5081778;28;20339;-78
2022/02/17 08:23:38;;;;;;;;;;;;;;;;;;5080177;28;19927;-79
2022/02/17 08:26:04;;;;;;;;;;;;;;;;;;5079740;28;19916;-80
2022/02/17 08:28:30;;;;;;;;;;;;;;;;;;5078463;28;19916;-79
2022/02/17 08:30:55;;;;;;;;;;;;;;;;;;5093804;28;19938;-78
2022/02/17 08:33:20;;;;;;;;;;;;;;;;;;5115769;28;19959;-78
2022/02/17 08:35:46;;;;;;;;;;;;;;;;;;5115131;28;19978;-78
2022/02/17 08:38:11;;;;;;;;;;;;;;;;;;5115940;28;19959;-79
2022/02/17 08:40:37;;;;;;;;;;;;;;;;;;5115554;28;19915;-78
2022/02/17 08:43:09;;;;;;;;;;;;;;;;;;5117648;28;19964;-79
2022/02/17 08:45:38;;;;;;;;;;;;;;;;;;5120427;28;19919;-79
2022/02/17 08:48:04;;;;;;;;;;;;;;;;;;5122711;28;19915;-81
2022/02/17 08:50:29;;;;;;;;;;;;;;;;;;5115551;28;19973;-79
2022/02/17 08:52:54;;;;;;;;;;;;;;;;;;5119606;28;20060;-81
2022/02/17 08:55:20;;;;;;;;;;;;;;;;;;5118465;28;20258;-79
2022/02/17 08:57:47;;;;;;;;;;;;;;;;;;5118667;28;19920;-77
2022/02/17 09:00:15;;;;;;;;;;;;;;;;;;5113962;28;20292;-77
2022/02/17 09:02:40;;;;;;;;;;;;;;;;;;5097455;28;20010;-79
2022/02/17 09:05:06;;;;;;;;;;;;;;;;;;5096640;28;19916;-79
2022/02/17 09:07:31;;;;;;;;;;;;;;;;;;5097230;28;19922;-78
2022/02/17 09:09:57;;;;;;;;;;;;;;;;;;5097396;28;19916;-77
2022/02/17 09:12:23;;;;;;;;;;;;;;;;;;5095984;28;19980;-79
2022/02/17 09:14:48;;;;;;;;;;;;;;;;;;5095956;28;20014;-78
2022/02/17 09:17:14;;;;;;;;;;;;;;;;;;5096380;28;19923;-78
2022/02/17 09:19:40;;;;;;;;;;;;;;;;;;5097158;28;19916;-79
2022/02/17 09:22:06;;;;;;;;;;;;;;;;;;5098438;28;19959;-79
2022/02/17 09:24:32;;;;;;;;;;;;;;;;;;5099997;28;19923;-77
2022/02/17 09:26:58;;;;;;;;;;;;;;;;;;5101550;28;19920;-78
2022/02/17 09:29:23;;;;;;;;;;;;;;;;;;5101598;28;20571;-79
2022/02/17 09:31:49;;;;;;;;;;;;;;;;;;5100952;28;19920;-78
2022/02/17 09:34:14;;;;;;;;;;;;;;;;;;5103072;28;19923;-78
2022/02/17 09:36:39;;;;;;;;;;;;;;;;;;5103291;28;20458;-79
2022/02/17 09:39:06;;;;;;;;;;;;;;;;;;5101902;28;20022;-79
2022/02/17 09:41:31;;;;;;;;;;;;;;;;;;5101771;28;19915;-79
2022/02/17 09:44:02;;;;;;;;;;;;;;;;;;5101168;28;20354;-78
2022/02/17 09:46:28;;;;;;;;;;;;;;;;;;5102399;28;19955;-78
2022/02/17 09:49:00;;;;;;;;;;;;;;;;;;5103067;28;19923;-78
2022/02/17 09:51:26;;;;;;;;;;;;;;;;;;5103156;28;19920;-78
2022/02/17 09:53:52;;;;;;;;;;;;;;;;;;5101682;28;19923;-79
2022/02/17 09:56:18;;;;;;;;;;;;;;;;;;5104234;28;19916;-79
2022/02/17 09:58:44;;;;;;;;;;;;;;;;;;5104755;28;20018;-79
2022/02/17 10:01:17;;;;;;;;;;;;;;;;;;5104544;28;19946;-80
2022/02/17 10:03:42;;;;;;;;;;;;;;;;;;5104557;28;19916;-78
2022/02/17 10:06:12;;;;;;;;;;;;;;;;;;5103709;28;20090;-78
2022/02/17 10:08:38;;;;;;;;;;;;;;;;;;5103794;28;19916;-78
2022/02/17 10:11:04;;;;;;;;;;;;;;;;;;5102900;28;19912;-82
2022/02/17 10:13:30;;;;;;;;;;;;;;;;;;5099017;28;20022;-80
2022/02/17 10:15:58;;;;;;;;;;;;;;;;;;5101431;28;20072;-82
2022/02/17 10:18:27;;;;;;;;;;;;;;;;;;5079595;28;20289;-76
2022/02/17 10:20:53;;;;;;;;;;;;;;;;;;5098731;28;20301;-77
2022/02/17 10:23:18;;;;;;;;;;;;;;;;;;5101099;28;19916;-80
2022/02/17 10:26:10;;;;;;;;;;;;;;;;;;5098277;28;20269;-80
2022/02/17 10:28:59;;;;;;;;;;;;;;;;;;5109306;28;20296;-77
2022/02/17 10:31:29;;;;;;;;;;;;;;;;;;5121878;28;19949;-81
2022/02/17 10:33:56;;;;;;;;;;;;;;;;;;5114390;28;19916;-84
2022/02/17 10:36:38;;;;;;;;;;;;;;;;;;5081680;28;19923;-82
2022/02/17 10:39:07;;;;;;;;;;;;;;;;;;5097467;28;19923;-84
2022/02/17 10:41:45;;;;;;;;;;;;;;;;;;5098396;28;19916;-84
2022/02/17 10:44:10;;;;;;;;;;;;;;;;;;5099246;28;20373;-82
2022/02/17 10:46:38;;;;;;;;;;;;;;;;;;5099393;28;20057;-79
2022/02/17 10:49:14;;;;;;;;;;;;;;;;;;5097554;28;19923;-81
2022/02/17 10:51:39;;;;;;;;;;;;;;;;;;5082474;28;20016;-83
2022/02/17 10:54:06;;;;;;;;;;;;;;;;;;5101553;28;19916;-81
2022/02/17 10:56:33;;;;;;;;;;;;;;;;;;5103536;28;19974;-82
2022/02/17 10:58:59;;;;;;;;;;;;;;;;;;5100985;28;20309;-82
2022/02/17 11:01:25;;;;;;;;;;;;;;;;;;5099909;28;19922;-82
2022/02/17 11:03:51;;;;;;;;;;;;;;;;;;5100435;28;19944;-79
2022/02/17 11:06:17;;;;;;;;;;;;;;;;;;5100307;28;20027;-81
2022/02/17 11:08:43;;;;;;;;;;;;;;;;;;5102151;28;19966;-82
2022/02/17 11:11:10;;;;;;;;;;;;;;;;;;5083655;28;20023;-78
2022/02/17 11:13:35;;;;;;;;;;;;;;;;;;5075893;28;20048;-77
2022/02/17 11:16:03;;;;;;;;;;;;;;;;;;5086439;28;19952;-78
2022/02/17 11:18:29;;;;;;;;;;;;;;;;;;5099494;28;19944;-79
2022/02/17 11:20:54;;;;;;;;;;;;;;;;;;5102714;28;20377;-78
2022/02/17 11:23:26;;;;;;;;;;;;;;;;;;5099664;28;19938;-80
2022/02/17 11:25:52;;;;;;;;;;;;;;;;;;5102881;28;20006;-81
2022/02/17 11:28:21;;;;;;;;;;;;;;;;;;5100197;28;19916;-82
2022/02/17 11:30:56;;;;;;;;;;;;;;;;;;5101381;28;20262;-83
2022/02/17 11:33:24;;;;;;;;;;;;;;;;;;5120053;28;19980;-82
2022/02/17 11:35:51;;;;;;;;;;;;;;;;;;5120380;28;19923;-83
2022/02/17 11:38:25;;;;;;;;;;;;;;;;;;5118392;28;19922;-83
2022/02/17 11:41:14;;;;;;;;;;;;;;;;;;5120544;28;19916;-84
2022/02/17 11:43:47;;;;;;;;;;;;;;;;;;5110592;28;20351;-84
2022/02/17 11:46:14;;;;;;;;;;;;;;;;;;5117229;28;19955;-82
2022/02/17 11:48:39;;;;;;;;;;;;;;;;;;5118457;28;19916;-80
2022/02/17 11:51:15;;;;;;;;;;;;;;;;;;5122071;28;19920;-79
2022/02/17 11:53:47;;;;;;;;;;;;;;;;;;5121091;28;19920;-79
2022/02/17 11:56:16;;;;;;;;;;;;;;;;;;5123240;28;19916;-78
2022/02/17 11:58:45;;;;;;;;;;;;;;;;;;5123946;28;19915;-78
2022/02/17 12:01:25;;;;;;;;;;;;;;;;;;5124368;28;19926;-78
2022/02/17 12:04:14;;;;;;;;;;;;;;;;;;5104359;28;19923;-79
2022/02/17 12:06:45;;;;;;;;;;;;;;;;;;5103341;28;19916;-78
2022/02/17 12:09:29;;;;;;;;;;;;;;;;;;5103965;28;19923;-78
2022/02/17 12:11:54;;;;;;;;;;;;;;;;;;5101210;28;19920;-78
2022/02/17 12:14:20;;;;;;;;;;;;;;;;;;5100676;28;19916;-78
2022/02/17 12:16:45;;;;;;;;;;;;;;;;;;5098725;28;19915;-78
2022/02/17 12:19:11;;;;;;;;;;;;;;;;;;5096214;28;20350;-77
2022/02/17 12:21:38;;;;;;;;;;;;;;;;;;5097600;28;19948;-77
2022/02/17 12:24:04;;;;;;;;;;;;;;;;;;5080669;28;19927;-77
2022/02/17 12:26:41;;;;;;;;;;;;;;;;;;5099013;28;19916;-77
2022/02/17 12:29:22;;;;;;;;;;;;;;;;;;5099274;28;20068;-77
2022/02/17 12:31:48;;;;;;;;;;;;;;;;;;5099654;28;19926;-77
2022/02/17 12:34:13;;;;;;;;;;;;;;;;;;5100372;28;20010;-77
2022/02/17 12:36:38;;;;;;;;;;;;;;;;;;5099580;28;20193;-78
2022/02/17 12:39:04;;;;;;;;;;;;;;;;;;5100124;28;19916;-78
2022/02/17 12:41:29;;;;;;;;;;;;;;;;;;5100518;28;19923;-78
2022/02/17 12:43:55;;;;;;;;;;;;;;;;;;5096125;28;19916;-77
2022/02/17 12:46:21;;;;;;;;;;;;;;;;;;5096818;28;19916;-77
2022/02/17 12:48:46;;;;;;;;;;;;;;;;;;5095271;28;19946;-77
2022/02/17 12:51:22;;;;;;;;;;;;;;;;;;5096763;28;19916;-77
2022/02/17 12:53:50;;;;;;;;;;;;;;;;;;5098592;28;19916;-78
2022/02/17 12:56:19;;;;;;;;;;;;;;;;;;5100993;28;19916;-78
2022/02/17 12:58:45;;;;;;;;;;;;;;;;;;5102384;28;20024;-78
2022/02/17 13:01:19;;;;;;;;;;;;;;;;;;5105323;28;19937;-78
2022/02/17 13:03:44;;;;;;;;;;;;;;;;;;5123057;28;20323;-78
2022/02/17 13:06:19;;;;;;;;;;;;;;;;;;5125469;28;19916;-78
2022/02/17 13:08:44;;;;;;;;;;;;;;;;;;5118724;28;19961;-78
2022/02/17 13:11:11;;;;;;;;;;;;;;;;;;5104405;28;19916;-78
2022/02/17 13:13:37;;;;;;;;;;;;;;;;;;5105111;28;19912;-78
2022/02/17 13:16:03;;;;;;;;;;;;;;;;;;5105792;28;19930;-78
2022/02/17 13:18:28;;;;;;;;;;;;;;;;;;5105473;28;20296;-78
2022/02/17 13:21:09;;;;;;;;;;;;;;;;;;5105285;28;19958;-77
2022/02/17 13:23:35;;;;;;;;;;;;;;;;;;5106417;28;19922;-77
2022/02/17 13:26:00;;;;;;;;;;;;;;;;;;5105511;28;20378;-77
2022/02/17 13:28:25;;;;;;;;;;;;;;;;;;5106150;28;19916;-78
2022/02/17 13:30:51;;;;;;;;;;;;;;;;;;5106152;28;19942;-78
2022/02/17 13:33:17;;;;;;;;;;;;;;;;;;5101960;28;20003;-78
2022/02/17 13:35:46;;;;;;;;;;;;;;;;;;5103200;28;19974;-78
2022/02/17 13:38:12;;;;;;;;;;;;;;;;;;5101931;28;19924;-78
2022/02/17 13:40:44;;;;;;;;;;;;;;;;;;5100226;28;19916;-78
2022/02/17 13:43:09;;;;;;;;;;;;;;;;;;5102153;28;20395;-78
2022/02/17 13:45:36;;;;;;;;;;;;;;;;;;5101066;28;19916;-77
2022/02/17 13:48:01;;;;;;;;;;;;;;;;;;5100118;28;19916;-77
2022/02/17 13:50:27;;;;;;;;;;;;;;;;;;5100716;28;19916;-78
2022/02/17 13:53:06;;;;;;;;;;;;;;;;;;5101590;28;19920;-77
2022/02/17 13:55:34;;;;;;;;;;;;;;;;;;5100279;28;19916;-77
2022/02/17 13:58:00;;;;;;;;;;;;;;;;;;5100532;28;19920;-77
2022/02/17 14:00:30;;;;;;;;;;;;;;;;;;5098360;28;19916;-77
2022/02/17 14:02:56;;;;;;;;;;;;;;;;;;5100365;28;19916;-77
2022/02/17 14:05:28;;;;;;;;;;;;;;;;;;5098446;28;19923;-77
2022/02/17 14:07:53;;;;;;;;;;;;;;;;;;5098763;28;19951;-77
2022/02/17 14:10:19;;;;;;;;;;;;;;;;;;5098348;28;20075;-77
2022/02/17 14:12:44;;;;;;;;;;;;;;;;;;5097858;28;19926;-77
2022/02/17 14:15:10;;;;;;;;;;;;;;;;;;5098694;28;19919;-77
2022/02/17 14:17:35;;;;;;;;;;;;;;;;;;5096275;28;19920;-77
2022/02/17 14:20:01;;;;;;;;;;;;;;;;;;5097988;28;19920;-77
2022/02/17 14:22:26;;;;;;;;;;;;;;;;;;5098394;28;20262;-77
2022/02/17 14:24:52;;;;;;;;;;;;;;;;;;5098555;28;20262;-77
2022/02/17 14:27:18;;;;;;;;;;;;;;;;;;5098229;28;20022;-77
2022/02/17 14:29:44;;;;;;;;;;;;;;;;;;5099548;28;19916;-77
2022/02/17 14:32:09;;;;;;;;;;;;;;;;;;5096900;28;19920;-78
2022/02/17 14:35:09;;;;;;;;;;;;;;;;;;5098992;28;20366;-77
2022/02/17 14:37:20;;;;;;;;;;;;;;;;;;5099652;28;19916;-77
2022/02/17 14:39:46;;;;;;;;;;;;;;;;;;5098984;28;19961;-77
2022/02/17 14:42:11;;;;;;;;;;;;;;;;;;5099137;28;20331;-80
2022/02/17 14:44:37;;;;;;;;;;;;;;;;;;5097874;28;20011;-78
2022/02/17 14:47:03;;;;;;;;;;;;;;;;;;5099495;28;20003;-78
2022/02/17 14:49:31;;;;;;;;;;;;;;;;;;5099832;28;19916;-78
2022/02/17 14:51:58;;;;;;;;;;;;;;;;;;5099378;28;19953;-78
2022/02/17 14:54:26;;;;;;;;;;;;;;;;;;5099611;28;19916;-78
2022/02/17 14:56:55;;;;;;;;;;;;;;;;;;5099182;28;19923;-78
2022/02/17 14:59:20;;;;;;;;;;;;;;;;;;5096264;28;19973;-78
2022/02/17 15:01:46;;;;;;;;;;;;;;;;;;5097931;28;19920;-78
2022/02/17 15:04:11;;;;;;;;;;;;;;;;;;5100610;28;19926;-78
2022/02/17 15:06:37;;;;;;;;;;;;;;;;;;5099817;28;19962;-78
2022/02/17 15:09:03;;;;;;;;;;;;;;;;;;5100234;28;19919;-79
2022/02/17 15:11:28;;;;;;;;;;;;;;;;;;5099352;28;19924;-78
2022/02/17 15:13:53;;;;;;;;;;;;;;;;;;5083502;28;19916;-78
2022/02/17 15:16:19;;;;;;;;;;;;;;;;;;5102024;28;20000;-78
2022/02/17 15:18:44;;;;;;;;;;;;;;;;;;5084412;28;19916;-78
2022/02/17 15:21:11;;;;;;;;;;;;;;;;;;5101923;28;19927;-78
2022/02/17 15:23:37;;;;;;;;;;;;;;;;;;5101883;28;20357;-78
2022/02/17 15:26:02;;;;;;;;;;;;;;;;;;5102319;28;19961;-81
2022/02/17 15:28:28;;;;;;;;;;;;;;;;;;5103556;28;19971;-80
2022/02/17 15:30:53;;;;;;;;;;;;;;;;;;5102253;28;19916;-80
2022/02/17 15:33:19;;;;;;;;;;;;;;;;;;5102498;28;20015;-80
2022/02/17 15:35:44;;;;;;;;;;;;;;;;;;5103433;28;19952;-79
2022/02/17 15:38:10;;;;;;;;;;;;;;;;;;5103024;28;20006;-80
2022/02/17 15:40:35;;;;;;;;;;;;;;;;;;5101605;28;19923;-79
2022/02/17 15:43:01;;;;;;;;;;;;;;;;;;5102842;28;19916;-78
2022/02/17 15:45:27;;;;;;;;;;;;;;;;;;5082241;28;19968;-79
2022/02/17 15:47:53;;;;;;;;;;;;;;;;;;5096904;28;19916;-78
2022/02/17 15:50:19;;;;;;;;;;;;;;;;;;5098192;28;20002;-79
2022/02/17 15:52:45;;;;;;;;;;;;;;;;;;5098696;28;19920;-79
2022/02/17 15:55:11;;;;;;;;;;;;;;;;;;5098261;28;19958;-78
2022/02/17 15:57:37;;;;;;;;;;;;;;;;;;5100151;28;19916;-78
2022/02/17 16:00:04;;;;;;;;;;;;;;;;;;5100391;28;19923;-78
2022/02/17 16:02:37;;;;;;;;;;;;;;;;;;5099104;28;19916;-78
2022/02/17 16:05:02;;;;;;;;;;;;;;;;;;5101377;28;19916;-78
2022/02/17 16:07:28;;;;;;;;;;;;;;;;;;5102604;28;19923;-78
2022/02/17 16:09:53;;;;;;;;;;;;;;;;;;5103573;28;19922;-78
2022/02/17 16:12:18;;;;;;;;;;;;;;;;;;5103373;28;19946;-78
2022/02/17 16:14:44;;;;;;;;;;;;;;;;;;5104290;28;19916;-78
2022/02/17 16:17:14;;;;;;;;;;;;;;;;;;5104749;28;19959;-78
2022/02/17 16:19:40;;;;;;;;;;;;;;;;;;5104521;28;19919;-78
2022/02/17 16:22:05;;;;;;;;;;;;;;;;;;5104569;28;19916;-79
2022/02/17 16:24:31;;;;;;;;;;;;;;;;;;5104631;28;19926;-78
2022/02/17 16:26:57;;;;;;;;;;;;;;;;;;5105499;28;19951;-78
2022/02/17 16:29:28;;;;;;;;;;;;;;;;;;5104466;28;20289;-78
2022/02/17 16:31:54;;;;;;;;;;;;;;;;;;5103391;28;19920;-78
2022/02/17 16:34:20;;;;;;;;;;;;;;;;;;5106597;28;20018;-78
2022/02/17 16:36:46;;;;;;;;;;;;;;;;;;5109601;28;19939;-78
2022/02/17 16:39:13;;;;;;;;;;;;;;;;;;5106886;28;19916;-79
2022/02/17 16:41:40;;;;;;;;;;;;;;;;;;5104977;28;19927;-78
2022/02/17 16:44:05;;;;;;;;;;;;;;;;;;5106289;28;19922;-79
2022/02/17 16:46:31;;;;;;;;;;;;;;;;;;5107472;28;19940;-78
2022/02/17 16:48:56;;;;;;;;;;;;;;;;;;5107330;28;19916;-79
2022/02/17 16:51:22;;;;;;;;;;;;;;;;;;5107863;28;19927;-79
2022/02/17 16:53:47;;;;;;;;;;;;;;;;;;5107984;28;19920;-79
2022/02/17 16:56:13;;;;;;;;;;;;;;;;;;5109713;28;19916;-79